Cedar Bluff, Alabama
Current Conditions -  °F | °C
As of 5:35 AM on Friday 31 Oct 2014 (Local Time) from K4A9 Reporting Station
Broken Clouds Broken Clouds  
Wind Chill: 41°   Ceiling: 9000
Heat Index: 41°   Visibility: 10mi
Dew Point: 37°   Wind: 0mph
Humidity: 87%   Direction: NA
Pressure: 29.97"   Gusts: NA
Location:  34.22°N, 85.61°W
Report Text: K4A9 311035Z AUTO 00000KT 10SM BKN090 BKN120 05/03 A2997 RMK AO2
Loading
Personal Weather Stations






























Interactive Weather Map
Tropical Storm Tracking
New forecast layout! Learn more

10-Day Weather Forecast

Advertisements
Track Severe Weather on mobile